createdAt,value
2022-11-02T00:00:45.416Z,24.02
2022-11-02T00:03:13.980Z,24.70
2022-11-02T00:05:42.512Z,25.83
2022-11-02T00:10:37.918Z,23.63
2022-11-02T00:13:05.980Z,24.05
2022-11-02T00:15:36.241Z,23.23
2022-11-02T00:18:11.395Z,24.65
2022-11-02T00:20:41.841Z,25.77
2022-11-02T00:23:12.363Z,24.80
2022-11-02T00:25:47.906Z,26.27
2022-11-02T00:28:16.194Z,26.17
2022-11-02T00:30:44.327Z,24.48
2022-11-02T00:33:11.982Z,26.45
2022-11-02T00:35:40.389Z,24.73
2022-11-02T00:38:07.880Z,25.58
2022-11-02T00:40:35.274Z,25.05
2022-11-02T00:43:02.603Z,25.95
2022-11-02T00:45:29.839Z,25.50
2022-11-02T00:47:57.079Z,25.48
2022-11-02T00:50:24.428Z,25.75
2022-11-02T00:52:51.778Z,26.52
2022-11-02T00:55:19.105Z,27.80
2022-11-02T00:57:46.355Z,26.83
2022-11-02T01:00:15.087Z,27.17
2022-11-02T01:02:43.205Z,25.20
2022-11-02T01:05:11.639Z,26.52
2022-11-02T01:07:39.787Z,27.45
2022-11-02T01:10:10.412Z,25.58
2022-11-02T01:12:40.312Z,24.95
2022-11-02T01:15:10.525Z,25.23
2022-11-02T01:17:39.629Z,25.73
2022-11-02T01:20:08.350Z,26.27
2022-11-02T01:22:35.938Z,25.52
2022-11-02T01:25:04.251Z,26.33
2022-11-02T01:27:32.164Z,26.88
2022-11-02T01:29:59.521Z,25.35
2022-11-02T01:32:30.825Z,24.75
2022-11-02T01:34:58.126Z,25.13
2022-11-02T01:37:25.319Z,26.55
2022-11-02T01:39:52.475Z,24.30
2022-11-02T01:42:24.108Z,25.55
2022-11-02T01:44:52.317Z,26.02
2022-11-02T01:47:37.907Z,26.70
2022-11-02T01:50:27.153Z,23.60
2022-11-02T01:52:54.927Z,23.25
2022-11-02T01:55:31.121Z,26.13
2022-11-02T01:58:09.759Z,24.10
2022-11-02T02:00:38.764Z,26.10
2022-11-02T02:03:18.255Z,25.80
2022-11-02T02:06:00.922Z,24.52
2022-11-02T02:08:30.134Z,23.88
2022-11-02T02:10:58.942Z,24.40
2022-11-02T02:13:28.660Z,24.15
2022-11-02T02:16:19.951Z,24.85
2022-11-02T02:18:56.788Z,24.85
2022-11-02T02:21:59.025Z,24.52
2022-11-02T02:24:48.868Z,23.48
2022-11-02T02:27:55.598Z,23.63
2022-11-02T02:30:23.558Z,22.73
2022-11-02T02:33:10.571Z,23.27
2022-11-02T02:35:49.555Z,24.33
2022-11-02T02:38:51.787Z,23.90
2022-11-02T02:42:08.099Z,23.45
2022-11-02T02:44:40.613Z,22.88
2022-11-02T02:47:21.404Z,23.92
2022-11-02T02:50:02.785Z,24.10
2022-11-02T02:52:34.809Z,22.48
2022-11-02T02:55:05.780Z,22.23
2022-11-02T02:57:35.888Z,24.05
2022-11-02T03:00:05.170Z,23.30
2022-11-02T03:02:37.223Z,23.23
2022-11-02T03:05:24.569Z,21.80
2022-11-02T03:07:53.651Z,23.00
2022-11-02T03:10:29.904Z,21.85
2022-11-02T03:13:36.602Z,23.27
2022-11-02T03:16:30.470Z,21.90
2022-11-02T03:19:16.812Z,21.23
2022-11-02T03:21:59.266Z,22.92
2022-11-02T03:24:47.439Z,22.02
2022-11-02T03:27:55.353Z,22.65
2022-11-02T03:30:26.387Z,22.20
2022-11-02T03:33:21.571Z,21.02
2022-11-02T03:36:23.893Z,21.60
2022-11-02T03:38:59.542Z,21.42
2022-11-02T03:41:29.337Z,21.55
2022-11-02T03:44:06.655Z,19.38
2022-11-02T03:46:39.157Z,21.85
2022-11-02T03:49:13.580Z,20.38
2022-11-02T03:51:46.034Z,20.52
2022-11-02T03:54:32.878Z,21.15
2022-11-02T03:57:07.665Z,20.48
2022-11-02T03:59:35.050Z,19.05
2022-11-02T04:02:02.751Z,20.90
2022-11-02T04:04:30.095Z,19.95
2022-11-02T04:06:57.529Z,20.52
2022-11-02T04:09:26.060Z,19.73
2022-11-02T04:14:39.094Z,18.77
2022-11-02T04:17:28.971Z,19.02
2022-11-02T04:19:57.244Z,18.80
2022-11-02T04:22:43.237Z,20.45
2022-11-02T04:25:21.004Z,18.33
2022-11-02T04:27:53.536Z,21.35
2022-11-02T04:30:23.262Z,18.95
2022-11-02T04:33:10.443Z,18.13
2022-11-02T04:35:38.106Z,18.58
2022-11-02T04:38:25.384Z,19.30
2022-11-02T04:41:12.481Z,18.80
2022-11-02T04:43:39.676Z,18.05
2022-11-02T04:46:06.926Z,18.98
2022-11-02T04:48:35.006Z,17.92
2022-11-02T04:51:02.499Z,18.25
2022-11-02T04:53:31.074Z,18.05
2022-11-02T04:58:26.107Z,19.83
2022-11-02T05:00:53.537Z,19.05
2022-11-02T05:03:20.917Z,17.67
2022-11-02T05:05:48.144Z,20.05
2022-11-02T05:08:15.419Z,18.92
2022-11-02T05:10:42.707Z,19.15
2022-11-02T05:13:10.954Z,18.58
2022-11-02T05:15:41.329Z,19.60
2022-11-02T05:18:08.976Z,18.33
2022-11-02T05:20:36.398Z,19.00
2022-11-02T05:23:03.925Z,19.38
2022-11-02T05:25:31.438Z,18.88
2022-11-02T05:27:59.039Z,20.08
2022-11-02T05:30:26.383Z,20.07
2022-11-02T05:32:57.800Z,18.55
2022-11-02T05:35:26.385Z,18.92
2022-11-02T05:37:55.994Z,18.92
2022-11-02T05:40:23.666Z,18.42
2022-11-02T05:42:52.282Z,19.40
2022-11-02T05:45:22.158Z,18.38
2022-11-02T05:47:51.926Z,18.30
2022-11-02T05:50:20.753Z,18.98
2022-11-02T05:52:48.270Z,18.35
2022-11-02T05:55:15.985Z,17.47
2022-11-02T05:57:43.269Z,18.98
2022-11-02T06:00:12.664Z,18.80
2022-11-02T06:02:40.041Z,18.75
2022-11-02T06:05:07.983Z,20.58
2022-11-02T06:07:35.430Z,19.52
2022-11-02T06:10:03.217Z,20.73
2022-11-02T06:12:30.394Z,17.17
2022-11-02T06:14:57.636Z,18.73
2022-11-02T06:17:24.953Z,17.75
2022-11-02T06:19:52.284Z,18.38
2022-11-02T06:22:19.594Z,19.40
2022-11-02T06:24:46.810Z,17.77
2022-11-02T06:27:14.113Z,19.58
2022-11-02T06:29:41.304Z,18.15
2022-11-02T06:32:10.875Z,17.88
2022-11-02T06:34:39.184Z,18.73
2022-11-02T06:37:06.351Z,17.35
2022-11-02T06:39:33.817Z,17.90
2022-11-02T06:42:01.036Z,18.02
2022-11-02T06:44:28.378Z,16.73
2022-11-02T06:46:58.392Z,17.02
2022-11-02T06:49:26.894Z,16.38
2022-11-02T06:51:54.254Z,16.85
2022-11-02T06:54:21.505Z,17.65
2022-11-02T06:56:48.833Z,17.15
2022-11-02T06:59:16.222Z,16.95
2022-11-02T07:01:44.524Z,17.70
2022-11-02T07:06:39.116Z,17.05
2022-11-02T07:09:08.791Z,15.53
2022-11-02T07:11:35.990Z,16.20
2022-11-02T07:14:03.194Z,17.52
2022-11-02T07:16:30.607Z,17.00
2022-11-02T07:18:58.094Z,17.65
2022-11-02T07:21:25.650Z,16.13
2022-11-02T07:23:53.135Z,17.40
2022-11-02T07:26:20.578Z,17.40
2022-11-02T07:28:48.349Z,16.67
2022-11-02T07:31:17.614Z,16.65
2022-11-02T07:33:45.040Z,15.80
2022-11-02T07:36:15.130Z,16.10
2022-11-02T07:38:43.025Z,16.20
2022-11-02T07:41:10.444Z,15.63
2022-11-02T07:43:41.329Z,16.02
2022-11-02T07:46:11.746Z,15.07
2022-11-02T07:48:39.068Z,15.07
2022-11-02T07:51:07.832Z,14.43
2022-11-02T07:53:35.320Z,15.50
2022-11-02T07:56:06.679Z,15.20
2022-11-02T07:58:34.347Z,14.82
2022-11-02T08:01:02.581Z,16.47
2022-11-02T08:03:30.618Z,15.13
2022-11-02T08:06:04.921Z,15.65
2022-11-02T08:08:32.271Z,15.35
2022-11-02T08:11:12.657Z,15.02
2022-11-02T08:17:05.097Z,15.60
2022-11-02T08:19:33.984Z,14.68
2022-11-02T08:22:01.198Z,15.15
2022-11-02T08:24:29.599Z,15.88
2022-11-02T08:26:56.855Z,14.98
2022-11-02T08:29:24.138Z,15.55
2022-11-02T08:31:51.488Z,15.90
2022-11-02T08:34:20.772Z,14.90
2022-11-02T08:36:48.023Z,14.57
2022-11-02T08:39:19.167Z,14.10
2022-11-02T08:41:46.832Z,14.75
2022-11-02T08:44:15.305Z,14.52
2022-11-02T08:49:10.597Z,15.75
2022-11-02T08:51:39.027Z,16.33
2022-11-02T08:54:06.578Z,15.95
2022-11-02T08:56:36.428Z,14.82
2022-11-02T08:59:11.243Z,15.18
2022-11-02T09:01:43.913Z,14.55
2022-11-02T09:04:21.939Z,14.48
2022-11-02T09:07:04.071Z,13.55
2022-11-02T09:09:34.887Z,14.93
